| time (UTC) | temp C | wind direction | speed KPH | gust KPH | rain 1hr cm | rain 24hr cm | rain mn cm | humidity % | barometer mb |
| 20260507104559 | 9 | 0 | 0.0 | 4.8 | 0.10 | 0.76 | 0.56 | 91 | 1007.4 |
| 20260507104052 | 9 | 0 | 0.0 | 6.4 | 0.10 | 0.76 | 0.56 | 92 | 1007.5 |
| 20260507103549 | 9 | 0 | 1.6 | 6.4 | 0.13 | 0.76 | 0.56 | 91 | 1007.5 |
| 20260507103049 | 8 | 307 | 1.6 | 6.4 | 0.10 | 0.74 | 0.53 | 91 | 1007.0 |
| 20260507102548 | 9 | 335 | 0.0 | 8.0 | 0.13 | 0.74 | 0.53 | 92 | 1007.3 |
| 20260507102050 | 9 | 0 | 3.2 | 8.0 | 0.13 | 0.74 | 0.53 | 91 | 1007.2 |
| 20260507101553 | 9 | 360 | 4.8 | 8.0 | 0.13 | 0.74 | 0.53 | 91 | 1007.0 |
| 20260507101048 | 9 | 360 | 1.6 | 6.4 | 0.13 | 0.71 | 0.51 | 91 | 1007.1 |
| 20260507100546 | 9 | 352 | 0.0 | 6.4 | 0.13 | 0.71 | 0.51 | 91 | 1007.5 |
| 20260507100101 | 9 | 342 | 1.6 | 4.8 | 0.13 | 0.71 | 0.51 | 90 | 1007.4 |
| 20260507095548 | 9 | 0 | 0.0 | 4.8 | 0.10 | 0.69 | 0.48 | 91 | 1007.3 |
| 20260507095047 | 9 | 0 | 0.0 | 4.8 | 0.10 | 0.69 | 0.48 | 91 | 1007.2 |
| 20260507094557 | 9 | 0 | 1.6 | 8.0 | 0.08 | 0.66 | 0.46 | 91 | 1007.2 |
| 20260507094046 | 9 | 279 | 1.6 | 8.0 | 0.10 | 0.66 | 0.46 | 91 | 1007.1 |
| 20260507093547 | 9 | 0 | 3.2 | 8.0 | 0.10 | 0.64 | 0.43 | 91 | 1007.2 |
| 20260507093058 | 9 | 338 | 1.6 | 12.9 | 0.13 | 0.64 | 0.43 | 91 | 1007.2 |
| 20260507092547 | 9 | 338 | 1.6 | 12.9 | 0.10 | 0.61 | 0.41 | 91 | 1007.0 |
| 20260507092049 | 10 | 347 | 8.0 | 12.9 | 0.13 | 0.61 | 0.41 | 91 | 1006.6 |
| 20260507091601 | 10 | 5 | 6.4 | 16.1 | 0.13 | 0.61 | 0.41 | 91 | 1006.8 |
| 20260507091047 | 10 | 350 | 6.4 | 17.7 | 0.13 | 0.58 | 0.38 | 89 | 1007.0 |
| 20260507090548 | 10 | 336 | 4.8 | 17.7 | 0.13 | 0.58 | 0.38 | 91 | 1006.9 |
| 20260507090103 | 10 | 360 | 3.2 | 14.5 | 0.15 | 0.58 | 0.38 | 92 | 1006.8 |
| 20260507085548 | 10 | 344 | 3.2 | 14.5 | 0.18 | 0.58 | 0.38 | 91 | 1006.8 |
| 20260507085048 | 10 | 18 | 6.4 | 16.1 | 0.18 | 0.58 | 0.38 | 91 | 1006.5 |
| 20260507084600 | 10 | 303 | 8.0 | 16.1 | 0.20 | 0.58 | 0.38 | 92 | 1006.8 |
| 20260507084047 | 10 | 348 | 6.4 | 14.5 | 0.18 | 0.56 | 0.36 | 92 | 1006.7 |
| 20260507083549 | 10 | 9 | 6.4 | 12.9 | 0.18 | 0.53 | 0.33 | 93 | 1006.6 |
| 20260507083058 | 10 | 350 | 3.2 | 8.0 | 0.15 | 0.51 | 0.30 | 91 | 1006.9 |
| 20260507082548 | 10 | 344 | 3.2 | 12.9 | 0.18 | 0.51 | 0.30 | 91 | 1006.9 |
| 20260507082046 | 10 | 351 | 4.8 | 12.9 | 0.18 | 0.48 | 0.28 | 91 | 1006.7 |
| 20260507081602 | 10 | 333 | 6.4 | 12.9 | 0.18 | 0.46 | 0.25 | 90 | 1006.8 |
| 20260507081050 | 10 | 342 | 6.4 | 12.9 | 0.23 | 0.46 | 0.25 | 90 | 1006.9 |
| 20260507080547 | 10 | 326 | 4.8 | 9.7 | 0.25 | 0.46 | 0.25 | 87 | 1007.0 |
| 20260507080121 | 10 | 335 | 3.2 | 11.3 | 0.23 | 0.43 | 0.23 | 90 | 1006.9 |
| 20260507075549 | 10 | 342 | 6.4 | 11.3 | 0.20 | 0.41 | 0.20 | 90 | 1006.7 |
| 20260507075048 | 10 | 352 | 1.6 | 6.4 | 0.20 | 0.41 | 0.20 | 90 | 1006.8 |
| 20260507074557 | 10 | 24 | 0.0 | 6.4 | 0.18 | 0.38 | 0.18 | 89 | 1007.1 |
| 20260507074047 | 10 | 0 | 0.0 | 8.0 | 0.18 | 0.38 | 0.18 | 90 | 1007.4 |
| 20260507073551 | 10 | 0 | 0.0 | 8.0 | 0.15 | 0.36 | 0.15 | 89 | 1007.2 |
| 20260507073054 | 10 | 341 | 3.2 | 9.7 | 0.15 | 0.36 | 0.15 | 87 | 1007.1 |
| 20260507072549 | 10 | 26 | 3.2 | 17.7 | 0.13 | 0.33 | 0.13 | 88 | 1006.6 |
| 20260507072048 | 11 | 315 | 4.8 | 19.3 | 0.10 | 0.30 | 0.10 | 87 | 1007.2 |
| 20260507071555 | 11 | 351 | 12.9 | 19.3 | 0.08 | 0.28 | 0.08 | 86 | 1007.0 |
| 20260507071048 | 11 | 5 | 8.0 | 16.1 | 0.03 | 0.23 | 0.03 | 85 | 1006.1 |
| 20260507070548 | 11 | 340 | 9.7 | 16.1 | 0.00 | 0.20 | 0.00 | 86 | 1006.2 |
| 20260507070104 | 11 | 34 | 6.4 | 17.7 | 0.00 | 0.20 | 0.00 | 84 | 1005.8 |
| 20260507065552 | 11 | 20 | 8.0 | 17.7 | 0.00 | 0.20 | 0.00 | 84 | 1005.8 |
| 20260507065047 | 11 | 22 | 8.0 | 19.3 | 0.00 | 0.20 | 0.00 | 85 | 1005.5 |
| 20260507064626 | 11 | 15 | 9.7 | 19.3 | 0.00 | 0.20 | 0.00 | 86 | 1005.7 |
| 20260507064052 | 11 | 38 | 9.7 | 16.1 | 0.00 | 0.20 | 0.00 | 87 | 1005.8 |
| 20260507063550 | 12 | 31 | 6.4 | 14.5 | 0.00 | 0.20 | 0.00 | 91 | 1005.8 |
| 20260507063112 | 12 | 334 | 1.6 | 14.5 | 0.00 | 0.20 | 0.00 | 91 | 1006.0 |
| 20260507062548 | 12 | 342 | 6.4 | 14.5 | 0.00 | 0.20 | 0.00 | 91 | 1006.2 |
| 20260507062048 | 12 | 352 | 4.8 | 9.7 | 0.00 | 0.20 | 0.00 | 88 | 1006.1 |
| 20260507061552 | 12 | 344 | 4.8 | 8.0 | 0.00 | 0.20 | 0.00 | 90 | 1006.0 |
| 20260507061051 | 12 | 327 | 1.6 | 12.9 | 0.00 | 0.20 | 0.00 | 90 | 1006.0 |
| 20260507060549 | 12 | 339 | 1.6 | 17.7 | 0.00 | 0.20 | 0.00 | 89 | 1006.0 |
| 20260507060111 | 12 | 333 | 4.8 | 17.7 | 0.00 | 0.20 | 0.00 | 89 | 1006.1 |
| 20260507055548 | 12 | 333 | 9.7 | 17.7 | 0.00 | 0.20 | 0.00 | 89 | 1006.0 |
| 20260507055048 | 12 | 5 | 6.4 | 17.7 | 0.00 | 0.20 | 0.00 | 89 | 1006.1 |
| 20260507054557 | 12 | 352 | 11.3 | 17.7 | 0.00 | 0.20 | 0.00 | 87 | 1006.2 |
| 20260507054048 | 12 | 327 | 6.4 | 12.9 | 0.00 | 0.20 | 0.00 | 90 | 1006.4 |
| 20260507053548 | 12 | 316 | 3.2 | 9.7 | 0.00 | 0.20 | 0.00 | 90 | 1006.4 |
| 20260507053103 | 12 | 296 | 3.2 | 11.3 | 0.00 | 0.20 | 0.00 | 90 | 1006.2 |
| 20260507052550 | 13 | 273 | 3.2 | 16.1 | 0.00 | 0.20 | 0.00 | 89 | 1006.3 |
| 20260507052048 | 13 | 280 | 4.8 | 16.1 | 0.00 | 0.20 | 0.00 | 90 | 1006.4 |
| 20260507051602 | 13 | 339 | 4.8 | 16.1 | 0.00 | 0.20 | 0.00 | 87 | 1006.5 |
| 20260507051047 | 13 | 286 | 0.0 | 6.4 | 0.00 | 0.20 | 0.00 | 91 | 1006.6 |
| 20260507050547 | 13 | 302 | 1.6 | 6.4 | 0.00 | 0.20 | 0.00 | 91 | 1006.4 |
| 20260507050052 | 13 | 0 | 1.6 | 4.8 | 0.00 | 0.20 | 0.00 | 91 | 1006.4 |
| 20260507045550 | 13 | 0 | 1.6 | 9.7 | 0.00 | 0.20 | 0.00 | 91 | 1006.3 |
| 20260507045048 | 13 | 291 | 1.6 | 9.7 | 0.00 | 0.20 | 0.00 | 91 | 1006.3 |
| 20260507044557 | 13 | 324 | 1.6 | 6.4 | 0.00 | 0.20 | 0.00 | 90 | 1006.4 |
| 20260507044051 | 13 | 0 | 0.0 | 6.4 | 0.00 | 0.20 | 0.00 | 91 | 1006.4 |
| 20260507043548 | 13 | 0 | 0.0 | 9.7 | 0.00 | 0.20 | 0.00 | 90 | 1006.4 |
| 20260507043052 | 13 | 267 | 1.6 | 9.7 | 0.00 | 0.20 | 0.00 | 90 | 1006.3 |
| 20260507042547 | 13 | 325 | 3.2 | 11.3 | 0.00 | 0.20 | 0.00 | 90 | 1006.2 |
| 20260507042048 | 13 | 263 | 4.8 | 11.3 | 0.00 | 0.20 | 0.00 | 90 | 1006.4 |
| 20260507041553 | 13 | 269 | 4.8 | 11.3 | 0.00 | 0.20 | 0.00 | 89 | 1006.3 |
| 20260507041048 | 13 | 309 | 3.2 | 14.5 | 0.00 | 0.20 | 0.00 | 89 | 1006.3 |
| 20260507040548 | 14 | 273 | 4.8 | 14.5 | 0.00 | 0.20 | 0.00 | 86 | 1006.1 |
| 20260507040052 | 14 | 277 | 6.4 | 16.1 | 0.00 | 0.20 | 0.00 | 90 | 1006.1 |
| 20260507035548 | 14 | 325 | 6.4 | 16.1 | 0.00 | 0.20 | 0.20 | 91 | 1006.2 |
| 20260507035047 | 14 | 306 | 8.0 | 16.1 | 0.00 | 0.20 | 0.20 | 93 | 1006.3 |
| 20260507034555 | 14 | 283 | 1.6 | 9.7 | 0.00 | 0.20 | 0.20 | 94 | 1006.2 |
| 20260507034047 | 14 | 277 | 3.2 | 9.7 | 0.00 | 0.20 | 0.20 | 94 | 1006.3 |
| 20260507033547 | 14 | 269 | 4.8 | 12.9 | 0.00 | 0.20 | 0.20 | 94 | 1006.2 |
| 20260507033050 | 14 | 338 | 4.8 | 14.5 | 0.00 | 0.20 | 0.20 | 94 | 1006.1 |
| 20260507032546 | 14 | 257 | 3.2 | 14.5 | 0.00 | 0.20 | 0.20 | 93 | 1006.2 |
| 20260507032048 | 14 | 242 | 3.2 | 12.9 | 0.00 | 0.20 | 0.20 | 93 | 1006.3 |
| 20260507031555 | 14 | 218 | 4.8 | 12.9 | 0.00 | 0.20 | 0.20 | 93 | 1006.3 |
| 20260507031050 | 14 | 234 | 6.4 | 12.9 | 0.00 | 0.20 | 0.20 | 93 | 1006.0 |
| 20260507030546 | 14 | 262 | 8.0 | 16.1 | 0.00 | 0.20 | 0.20 | 93 | 1005.9 |
| 20260507030053 | 14 | 219 | 8.0 | 16.1 | 0.00 | 0.20 | 0.20 | 93 | 1006.0 |
| 20260507025549 | 14 | 242 | 6.4 | 16.1 | 0.00 | 0.20 | 0.20 | 93 | 1006.0 |
| 20260507025049 | 14 | 226 | 6.4 | 16.1 | 0.00 | 0.20 | 0.20 | 93 | 1006.1 |
| 20260507024555 | 14 | 228 | 8.0 | 16.1 | 0.00 | 0.20 | 0.20 | 93 | 1006.1 |
| 20260507024048 | 14 | 236 | 6.4 | 16.1 | 0.00 | 0.20 | 0.20 | 93 | 1006.0 |
| 20260507023548 | 14 | 233 | 6.4 | 16.1 | 0.00 | 0.20 | 0.20 | 93 | 1006.1 |
| 20260507023055 | 14 | 240 | 6.4 | 14.5 | 0.00 | 0.20 | 0.20 | 93 | 1006.0 |
| 20260507022548 | 14 | 254 | 8.0 | 14.5 | 0.00 | 0.20 | 0.20 | 93 | 1006.0 |
| 20260507022047 | 14 | 215 | 4.8 | 12.9 | 0.00 | 0.20 | 0.20 | 93 | 1005.9 |
| 20260507021550 | 14 | 209 | 4.8 | 12.9 | 0.00 | 0.20 | 0.20 | 93 | 1005.9 |
| 20260507021047 | 14 | 212 | 3.2 | 17.7 | 0.00 | 0.20 | 0.20 | 93 | 1005.9 |
| 20260507020549 | 14 | 252 | 6.4 | 17.7 | 0.00 | 0.20 | 0.20 | 93 | 1006.0 |
| 20260507020108 | 14 | 234 | 6.4 | 14.5 | 0.03 | 0.20 | 0.20 | 93 | 1006.0 |
| 20260507015548 | 14 | 216 | 6.4 | 11.3 | 0.03 | 0.20 | 0.20 | 94 | 1006.1 |
| 20260507015047 | 14 | 259 | 3.2 | 11.3 | 0.03 | 0.20 | 0.20 | 94 | 1006.1 |
| 20260507014558 | 13 | 45 | 3.2 | 11.3 | 0.03 | 0.20 | 0.20 | 94 | 1005.9 |
| 20260507014049 | 13 | 272 | 3.2 | 9.7 | 0.03 | 0.20 | 0.20 | 93 | 1005.9 |
| 20260507013548 | 13 | 211 | 4.8 | 12.9 | 0.03 | 0.20 | 0.20 | 94 | 1006.1 |
| 20260507013053 | 13 | 219 | 3.2 | 12.9 | 0.03 | 0.20 | 0.20 | 94 | 1006.0 |
| 20260507012548 | 13 | 238 | 6.4 | 12.9 | 0.03 | 0.20 | 0.20 | 94 | 1005.9 |
| 20260507012049 | 13 | 249 | 4.8 | 12.9 | 0.03 | 0.20 | 0.20 | 94 | 1005.8 |
| 20260507011550 | 13 | 232 | 4.8 | 12.9 | 0.03 | 0.20 | 0.20 | 94 | 1006.1 |
| 20260507011048 | 13 | 243 | 6.4 | 12.9 | 0.03 | 0.20 | 0.20 | 94 | 1006.3 |
| 20260507010547 | 13 | 226 | 3.2 | 12.9 | 0.03 | 0.20 | 0.20 | 94 | 1006.1 |
| 20260507010100 | 13 | 209 | 3.2 | 12.9 | 0.00 | 0.18 | 0.18 | 94 | 1006.4 |
| 20260507005547 | 13 | 252 | 4.8 | 11.3 | 0.00 | 0.18 | 0.18 | 94 | 1006.3 |
| 20260507005048 | 13 | 198 | 4.8 | 12.9 | 0.00 | 0.18 | 0.18 | 94 | 1006.4 |
| 20260507004551 | 13 | 242 | 4.8 | 16.1 | 0.00 | 0.18 | 0.18 | 94 | 1006.4 |
| 20260507004048 | 13 | 260 | 6.4 | 16.1 | 0.00 | 0.18 | 0.18 | 94 | 1006.4 |
| 20260507003546 | 13 | 249 | 6.4 | 16.1 | 0.00 | 0.18 | 0.18 | 94 | 1006.4 |
| 20260507003050 | 13 | 250 | 6.4 | 16.1 | 0.00 | 0.18 | 0.18 | 94 | 1006.4 |
| 20260507002547 | 13 | 213 | 3.2 | 14.5 | 0.00 | 0.18 | 0.18 | 94 | 1006.4 |
| 20260507002047 | 13 | 208 | 6.4 | 14.5 | 0.00 | 0.18 | 0.18 | 94 | 1006.2 |
| 20260507001557 | 13 | 201 | 3.2 | 12.9 | 0.00 | 0.18 | 0.18 | 94 | 1006.2 |
| 20260507001049 | 13 | 230 | 4.8 | 12.9 | 0.00 | 0.18 | 0.18 | 93 | 1006.2 |
| 20260507000546 | 13 | 269 | 4.8 | 12.9 | 0.00 | 0.18 | 0.18 | 93 | 1006.1 |
| 20260507000054 | 13 | 259 | 4.8 | 12.9 | 0.00 | 0.18 | 0.18 | 93 | 1006.2 |
| 20260506235549 | 13 | 238 | 4.8 | 11.3 | 0.00 | 0.18 | 0.18 | 93 | 1006.1 |
| 20260506235047 | 13 | 213 | 4.8 | 12.9 | 0.00 | 0.18 | 0.18 | 93 | 1006.2 |
| 20260506234558 | 13 | 240 | 4.8 | 16.1 | 0.00 | 0.18 | 0.18 | 93 | 1006.0 |
| 20260506234045 | 13 | 252 | 4.8 | 16.1 | 0.00 | 0.18 | 0.18 | 92 | 1006.0 |
| 20260506233549 | 13 | 250 | 4.8 | 12.9 | 0.00 | 0.18 | 0.18 | 93 | 1006.0 |
| 20260506233055 | 13 | 238 | 4.8 | 12.9 | 0.00 | 0.18 | 0.18 | 93 | 1005.9 |
| 20260506232545 | 13 | 211 | 3.2 | 9.7 | 0.00 | 0.18 | 0.18 | 92 | 1005.9 |
| 20260506232045 | 13 | 233 | 3.2 | 12.9 | 0.00 | 0.18 | 0.18 | 92 | 1005.9 |
| 20260506231605 | 14 | 0 | 4.8 | 14.5 | 0.00 | 0.18 | 0.18 | 92 | 1005.8 |
| 20260506231047 | 14 | 0 | 6.4 | 14.5 | 0.00 | 0.18 | 0.18 | 92 | 1005.9 |
| 20260506230547 | 14 | 209 | 6.4 | 12.9 | 0.00 | 0.18 | 0.18 | 92 | 1005.9 |
| 20260506230114 | 14 | 0 | 4.8 | 12.9 | 0.00 | 0.18 | 0.18 | 92 | 1005.9 |
| 20260506225552 | 14 | 174 | 4.8 | 12.9 | 0.00 | 0.18 | 0.18 | 92 | 1005.9 |
| 20260506225046 | 14 | 234 | 4.8 | 12.9 | 0.00 | 0.18 | 0.18 | 92 | 1006.0 |
| 20260506224550 | 14 | 236 | 8.0 | 12.9 | 0.00 | 0.18 | 0.18 | 91 | 1005.9 |
| 20260506224045 | 14 | 260 | 6.4 | 12.9 | 0.00 | 0.18 | 0.18 | 92 | 1005.9 |
| 20260506223546 | 14 | 192 | 3.2 | 12.9 | 0.00 | 0.18 | 0.18 | 92 | 1006.0 |
| 20260506223051 | 14 | 237 | 3.2 | 11.3 | 0.00 | 0.18 | 0.18 | 92 | 1005.8 |
| 20260506222548 | 14 | 187 | 4.8 | 11.3 | 0.00 | 0.18 | 0.18 | 92 | 1005.7 |
| 20260506222048 | 14 | 205 | 3.2 | 11.3 | 0.03 | 0.18 | 0.18 | 92 | 1005.7 |
| 20260506221609 | 14 | 234 | 1.6 | 11.3 | 0.03 | 0.18 | 0.18 | 92 | 1005.8 |
| 20260506221047 | 14 | 268 | 3.2 | 11.3 | 0.03 | 0.18 | 0.18 | 92 | 1005.7 |
| 20260506220551 | 14 | 219 | 4.8 | 14.5 | 0.03 | 0.18 | 0.18 | 92 | 1005.8 |
| 20260506220105 | 14 | 201 | 4.8 | 14.5 | 0.03 | 0.18 | 0.18 | 92 | 1005.9 |
| 20260506215547 | 14 | 216 | 0.0 | 14.5 | 0.03 | 0.18 | 0.18 | 92 | 1006.1 |
| 20260506215048 | 14 | 243 | 6.4 | 14.5 | 0.03 | 0.18 | 0.18 | 92 | 1006.2 |
| 20260506214553 | 14 | 199 | 4.8 | 14.5 | 0.03 | 0.18 | 0.18 | 92 | 1006.2 |
| 20260506214048 | 14 | 243 | 4.8 | 14.5 | 0.03 | 0.18 | 0.18 | 92 | 1006.2 |
| 20260506213548 | 14 | 0 | 4.8 | 17.7 | 0.03 | 0.18 | 0.18 | 92 | 1006.1 |
| 20260506213105 | 14 | 211 | 3.2 | 17.7 | 0.03 | 0.18 | 0.18 | 92 | 1006.3 |
| 20260506212548 | 14 | 229 | 6.4 | 16.1 | 0.03 | 0.18 | 0.18 | 92 | 1006.2 |
| 20260506212048 | 14 | 232 | 6.4 | 14.5 | 0.00 | 0.15 | 0.15 | 92 | 1006.3 |
| 20260506211610 | 14 | 232 | 6.4 | 19.3 | 0.00 | 0.15 | 0.15 | 91 | 1006.4 |
| 20260506211049 | 15 | 233 | 9.7 | 19.3 | 0.00 | 0.15 | 0.15 | 90 | 1006.5 |
| 20260506210548 | 15 | 212 | 9.7 | 19.3 | 0.00 | 0.15 | 0.15 | 90 | 1006.6 |
| 20260506210056 | 15 | 268 | 4.8 | 16.1 | 0.00 | 0.15 | 0.15 | 90 | 1006.7 |
| 20260506205547 | 15 | 247 | 8.0 | 19.3 | 0.00 | 0.15 | 0.15 | 90 | 1006.7 |
| 20260506205049 | 15 | 221 | 6.4 | 19.3 | 0.00 | 0.15 | 0.15 | 90 | 1006.6 |
| 20260506204601 | 15 | 216 | 8.0 | 16.1 | 0.00 | 0.15 | 0.15 | 90 | 1006.7 |
| 20260506204047 | 15 | 205 | 4.8 | 14.5 | 0.03 | 0.15 | 0.15 | 91 | 1006.6 |
| 20260506203548 | 15 | 223 | 1.6 | 12.9 | 0.03 | 0.15 | 0.15 | 91 | 1006.7 |
| 20260506203048 | 15 | 215 | 3.2 | 12.9 | 0.03 | 0.15 | 0.15 | 90 | 1006.8 |
| 20260506202548 | 15 | 253 | 6.4 | 16.1 | 0.05 | 0.15 | 0.15 | 90 | 1006.7 |
| 20260506202049 | 15 | 227 | 4.8 | 16.1 | 0.08 | 0.15 | 0.15 | 90 | 1006.8 |
| 20260506201550 | 15 | 265 | 6.4 | 12.9 | 0.08 | 0.15 | 0.15 | 91 | 1006.9 |
| 20260506201048 | 15 | 193 | 4.8 | 19.3 | 0.10 | 0.15 | 0.15 | 91 | 1006.8 |
| 20260506200549 | 15 | 227 | 4.8 | 29.0 | 0.10 | 0.15 | 0.15 | 90 | 1006.9 |
| 20260506200054 | 15 | 250 | 6.4 | 29.0 | 0.10 | 0.15 | 0.15 | 90 | 1006.9 |
| 20260506195552 | 15 | 261 | 9.7 | 29.0 | 0.10 | 0.15 | 0.15 | 90 | 1007.1 |
| 20260506195049 | 15 | 217 | 6.4 | 14.5 | 0.13 | 0.15 | 0.15 | 90 | 1007.1 |
| 20260506194552 | 15 | 223 | 6.4 | 12.9 | 0.13 | 0.15 | 0.15 | 90 | 1007.1 |
| 20260506194048 | 15 | 236 | 1.6 | 11.3 | 0.10 | 0.13 | 0.13 | 91 | 1007.0 |
| 20260506193547 | 15 | 232 | 4.8 | 17.7 | 0.13 | 0.13 | 0.13 | 90 | 1007.1 |
| 20260506193047 | 15 | 196 | 8.0 | 17.7 | 0.13 | 0.13 | 0.13 | 89 | 1007.1 |
| 20260506192548 | 15 | 213 | 4.8 | 11.3 | 0.10 | 0.10 | 0.10 | 89 | 1007.1 |
| 20260506192048 | 15 | 202 | 3.2 | 9.7 | 0.08 | 0.08 | 0.08 | 88 | 1007.2 |
| 20260506191553 | 15 | 255 | 3.2 | 17.7 | 0.08 | 0.08 | 0.08 | 87 | 1007.2 |
| 20260506191048 | 15 | 211 | 3.2 | 17.7 | 0.05 | 0.05 | 0.05 | 86 | 1007.3 |
| 20260506190548 | 15 | 253 | 9.7 | 33.8 | 0.05 | 0.05 | 0.05 | 85 | 1007.2 |
| 20260506190051 | 15 | 227 | 12.9 | 33.8 | 0.05 | 0.05 | 0.05 | 85 | 1007.2 |
| 20260506185548 | 15 | 217 | 9.7 | 24.1 | 0.05 | 0.05 | 0.05 | 84 | 1007.4 |
| 20260506185048 | 15 | 192 | 6.4 | 24.1 | 0.03 | 0.03 | 0.03 | 83 | 1007.4 |
| 20260506184605 | 16 | 221 | 11.3 | 24.1 | 0.03 | 0.03 | 0.03 | 82 | 1007.6 |
| 20260506184048 | 16 | 235 | 4.8 | 20.9 | 0.00 | 0.00 | 0.00 | 82 | 1007.6 |
| 20260506183554 | 16 | 235 | 8.0 | 20.9 | 0.00 | 0.00 | 0.00 | 79 | 1007.7 |
| 20260506183051 | 16 | 238 | 8.0 | 19.3 | 0.00 | 0.00 | 0.00 | 77 | 1007.7 |
| 20260506182547 | 17 | 260 | 9.7 | 24.1 | 0.00 | 0.00 | 0.00 | 76 | 1007.6 |
| 20260506182051 | 17 | 236 | 9.7 | 25.7 | 0.00 | 0.00 | 0.00 | 75 | 1007.7 |
| 20260506181552 | 17 | 259 | 11.3 | 25.7 | 0.00 | 0.00 | 0.00 | 74 | 1007.9 |
| 20260506181048 | 17 | 223 | 16.1 | 25.7 | 0.00 | 0.00 | 0.00 | 72 | 1007.9 |
| 20260506180548 | 17 | 234 | 17.7 | 25.7 | 0.00 | 0.00 | 0.00 | 71 | 1007.8 |
| 20260506180058 | 18 | 205 | 14.5 | 22.5 | 0.00 | 0.00 | 0.00 | 70 | 1007.9 |
| 20260506175548 | 18 | 207 | 6.4 | 30.6 | 0.00 | 0.00 | 0.00 | 68 | 1007.8 |
| 20260506175050 | 18 | 217 | 6.4 | 30.6 | 0.00 | 0.00 | 0.00 | 69 | 1007.9 |
| 20260506174557 | 18 | 251 | 16.1 | 30.6 | 0.00 | 0.00 | 0.00 | 67 | 1008.0 |
| 20260506174047 | 18 | 196 | 14.5 | 30.6 | 0.00 | 0.00 | 0.00 | 67 | 1008.0 |
| 20260506173548 | 19 | 239 | 11.3 | 29.0 | 0.00 | 0.00 | 0.00 | 65 | 1007.9 |
| 20260506173051 | 20 | 259 | 12.9 | 29.0 | 0.00 | 0.00 | 0.00 | 65 | 1007.9 |
| 20260506172549 | 20 | 199 | 11.3 | 30.6 | 0.00 | 0.00 | 0.00 | 65 | 1008.0 |
| 20260506172048 | 20 | 250 | 14.5 | 30.6 | 0.00 | 0.00 | 0.00 | 64 | 1008.0 |
| 20260506171607 | 20 | 190 | 11.3 | 30.6 | 0.00 | 0.00 | 0.00 | 64 | 1008.0 |
| 20260506171048 | 20 | 265 | 12.9 | 30.6 | 0.00 | 0.00 | 0.00 | 64 | 1008.1 |
| 20260506170549 | 20 | 235 | 17.7 | 30.6 | 0.00 | 0.00 | 0.00 | 64 | 1008.0 |
| 20260506170100 | 19 | 211 | 12.9 | 25.7 | 0.00 | 0.00 | 0.00 | 65 | 1008.0 |
| 20260506165548 | 20 | 167 | 12.9 | 24.1 | 0.00 | 0.00 | 0.00 | 62 | 1008.1 |
| 20260506165048 | 21 | 170 | 9.7 | 33.8 | 0.00 | 0.00 | 0.00 | 62 | 1008.0 |
| 20260506164555 | 21 | 202 | 12.9 | 33.8 | 0.00 | 0.00 | 0.00 | 62 | 1008.0 |
| 20260506164048 | 20 | 200 | 9.7 | 24.1 | 0.00 | 0.00 | 0.00 | 60 | 1008.2 |
| 20260506163547 | 20 | 194 | 11.3 | 25.7 | 0.00 | 0.00 | 0.00 | 63 | 1008.2 |
| 20260506163107 | 20 | 213 | 11.3 | 25.7 | 0.00 | 0.00 | 0.00 | 63 | 1008.2 |
| 20260506162551 | 20 | 238 | 9.7 | 22.5 | 0.00 | 0.00 | 0.00 | 63 | 1008.5 |
| 20260506162048 | 20 | 243 | 9.7 | 22.5 | 0.00 | 0.00 | 0.00 | 62 | 1008.5 |
| 20260506161557 | 20 | 216 | 11.3 | 22.5 | 0.00 | 0.00 | 0.00 | 63 | 1008.6 |
| 20260506161050 | 20 | 202 | 8.0 | 24.1 | 0.00 | 0.00 | 0.00 | 62 | 1008.6 |
| 20260506160549 | 20 | 207 | 8.0 | 27.4 | 0.00 | 0.00 | 0.00 | 61 | 1008.7 |
| 20260506155548 | 20 | 223 | 9.7 | 29.0 | 0.00 | 0.00 | 0.00 | 63 | 1008.9 |
| 20260506155047 | 20 | 229 | 14.5 | 29.0 | 0.00 | 0.00 | 0.00 | 63 | 1008.9 |
| 20260506154558 | 20 | 193 | 12.9 | 27.4 | 0.00 | 0.00 | 0.00 | 62 | 1008.9 |
| 20260506154051 | 20 | 236 | 11.3 | 27.4 | 0.00 | 0.00 | 0.00 | 63 | 1008.9 |
| 20260506153547 | 20 | 196 | 11.3 | 27.4 | 0.00 | 0.00 | 0.00 | 62 | 1009.1 |
| 20260506153059 | 20 | 155 | 9.7 | 33.8 | 0.00 | 0.00 | 0.00 | 62 | 1009.0 |
| 20260506152548 | 20 | 249 | 12.9 | 33.8 | 0.00 | 0.00 | 0.00 | 63 | 1009.1 |
| 20260506152048 | 20 | 245 | 9.7 | 27.4 | 0.00 | 0.00 | 0.00 | 61 | 1009.2 |
| 20260506151556 | 20 | 199 | 14.5 | 27.4 | 0.00 | 0.00 | 0.00 | 63 | 1009.2 |
| 20260506151047 | 20 | 211 | 12.9 | 25.7 | 0.00 | 0.00 | 0.00 | 65 | 1009.3 |
| 20260506150547 | 20 | 261 | 12.9 | 25.7 | 0.00 | 0.00 | 0.00 | 63 | 1009.3 |
| 20260506150056 | 19 | 203 | 12.9 | 33.8 | 0.00 | 0.00 | 0.00 | 62 | 1009.3 |
| 20260506145548 | 20 | 188 | 8.0 | 33.8 | 0.00 | 0.00 | 0.00 | 65 | 1009.4 |
| 20260506145049 | 19 | 247 | 12.9 | 27.4 | 0.00 | 0.00 | 0.00 | 66 | 1009.3 |
| 20260506144601 | 19 | 234 | 6.4 | 24.1 | 0.00 | 0.00 | 0.00 | 67 | 1009.4 |
| 20260506144047 | 18 | 272 | 11.3 | 30.6 | 0.00 | 0.00 | 0.00 | 68 | 1009.5 |
| 20260506143548 | 18 | 200 | 14.5 | 30.6 | 0.00 | 0.00 | 0.00 | 67 | 1009.5 |
| 20260506143050 | 19 | 211 | 6.4 | 30.6 | 0.00 | 0.00 | 0.00 | 67 | 1009.5 |
| 20260506142548 | 19 | 175 | 8.0 | 22.5 | 0.00 | 0.00 | 0.00 | 67 | 1009.4 |
| 20260506142048 | 18 | 232 | 9.7 | 25.7 | 0.00 | 0.00 | 0.00 | 67 | 1009.4 |
| 20260506141547 | 18 | 243 | 9.7 | 25.7 | 0.00 | 0.00 | 0.00 | 67 | 1009.2 |
| 20260506141048 | 19 | 213 | 9.7 | 20.9 | 0.00 | 0.00 | 0.00 | 66 | 1009.2 |
| 20260506140548 | 19 | 215 | 9.7 | 30.6 | 0.00 | 0.00 | 0.00 | 66 | 1009.2 |
| 20260506140051 | 19 | 217 | 8.0 | 30.6 | 0.00 | 0.00 | 0.00 | 68 | 1009.3 |
| 20260506135547 | 18 | 223 | 11.3 | 30.6 | 0.00 | 0.00 | 0.00 | 68 | 1009.5 |
| 20260506135047 | 18 | 248 | 11.3 | 25.7 | 0.00 | 0.00 | 0.00 | 65 | 1009.3 |
| 20260506134552 | 18 | 243 | 8.0 | 25.7 | 0.00 | 0.00 | 0.00 | 69 | 1009.3 |
| 20260506134048 | 18 | 180 | 11.3 | 25.7 | 0.00 | 0.00 | 0.00 | 69 | 1009.2 |
| 20260506133548 | 18 | 171 | 4.8 | 22.5 | 0.00 | 0.00 | 0.00 | 70 | 1009.3 |
| 20260506133054 | 18 | 242 | 8.0 | 24.1 | 0.00 | 0.00 | 0.00 | 70 | 1009.4 |
| 20260506132549 | 18 | 248 | 11.3 | 24.1 | 0.00 | 0.00 | 0.00 | 70 | 1009.5 |
| 20260506132050 | 18 | 186 | 9.7 | 19.3 | 0.00 | 0.00 | 0.00 | 72 | 1009.7 |
| 20260506131607 | 17 | 185 | 9.7 | 19.3 | 0.00 | 0.00 | 0.00 | 71 | 1009.9 |
| 20260506131047 | 17 | 248 | 6.4 | 27.4 | 0.00 | 0.00 | 0.00 | 75 | 1009.9 |
| 20260506130547 | 17 | 195 | 9.7 | 27.4 | 0.00 | 0.00 | 0.00 | 74 | 1009.9 |
| 20260506130056 | 17 | 221 | 11.3 | 30.6 | 0.00 | 0.00 | 0.00 | 74 | 1009.9 |
| 20260506125549 | 17 | 179 | 12.9 | 30.6 | 0.00 | 0.00 | 0.00 | 76 | 1009.8 |
| 20260506125047 | 17 | 239 | 12.9 | 24.1 | 0.00 | 0.00 | 0.00 | 76 | 1009.9 |
| 20260506124556 | 16 | 271 | 9.7 | 20.9 | 0.00 | 0.00 | 0.00 | 77 | 1009.8 |
| 20260506124048 | 16 | 194 | 9.7 | 25.7 | 0.00 | 0.00 | 0.00 | 77 | 1009.9 |
| 20260506123548 | 16 | 251 | 12.9 | 25.7 | 0.00 | 0.00 | 0.00 | 77 | 1009.9 |
| 20260506123055 | 16 | 242 | 6.4 | 20.9 | 0.00 | 0.00 | 0.00 | 77 | 1009.9 |
| 20260506122547 | 16 | 204 | 9.7 | 24.1 | 0.00 | 0.00 | 0.00 | 78 | 1009.9 |
| 20260506122048 | 16 | 241 | 9.7 | 24.1 | 0.00 | 0.00 | 0.00 | 78 | 1009.8 |
| 20260506121600 | 16 | 226 | 6.4 | 24.1 | 0.00 | 0.00 | 0.00 | 78 | 1009.9 |
| 20260506121050 | 16 | 211 | 8.0 | 24.1 | 0.00 | 0.00 | 0.00 | 78 | 1009.9 |
| 20260506120548 | 16 | 206 | 11.3 | 24.1 | 0.00 | 0.00 | 0.00 | 79 | 1009.8 |
| 20260506120055 | 16 | 232 | 6.4 | 33.8 | 0.00 | 0.00 | 0.00 | 79 | 1009.9 |
| 20260506115548 | 15 | 265 | 9.7 | 33.8 | 0.00 | 0.00 | 0.00 | 80 | 1009.9 |
| 20260506115048 | 15 | 257 | 8.0 | 19.3 | 0.00 | 0.00 | 0.00 | 80 | 1010.1 |
| 20260506114556 | 15 | 284 | 8.0 | 22.5 | 0.00 | 0.00 | 0.00 | 81 | 1010.2 |
| 20260506114048 | 15 | 229 | 6.4 | 22.5 | 0.00 | 0.00 | 0.00 | 82 | 1010.2 |
| 20260506113548 | 15 | 233 | 3.2 | 17.7 | 0.00 | 0.00 | 0.00 | 82 | 1010.2 |
| 20260506113054 | 15 | 213 | 8.0 | 19.3 | 0.00 | 0.00 | 0.00 | 82 | 1010.2 |
| 20260506112552 | 15 | 259 | 6.4 | 20.9 | 0.00 | 0.00 | 0.00 | 82 | 1010.2 |
| 20260506112048 | 15 | 213 | 4.8 | 20.9 | 0.00 | 0.00 | 0.00 | 82 | 1010.3 |
| 20260506111554 | 15 | 240 | 9.7 | 19.3 | 0.00 | 0.00 | 0.00 | 82 | 1010.3 |
| 20260506111048 | 15 | 225 | 9.7 | 19.3 | 0.00 | 0.00 | 0.00 | 82 | 1010.2 |
| 20260506110548 | 15 | 202 | 6.4 | 14.5 | 0.00 | 0.00 | 0.00 | 82 | 1010.2 |
| 20260506110055 | 15 | 221 | 6.4 | 14.5 | 0.00 | 0.00 | 0.00 | 83 | 1010.2 |
| 20260506105548 | 15 | 222 | 3.2 | 19.3 | 0.00 | 0.00 | 0.00 | 83 | 1010.1 |
| 20260506105048 | 14 | 246 | 8.0 | 19.3 | 0.00 | 0.00 | 0.00 | 83 | 1010.1 |